sensor_id;sensor_type;location;lat;lon;timestamp;temperature;humidity
84432;DHT22;74658;51.736;7.038;2024-01-30T00:00:30;4.6;
84432;DHT22;74658;51.736;7.038;2024-01-30T00:05:30;4.7;
84432;DHT22;74658;51.736;7.038;2024-01-30T00:10:32;4.6;
84432;DHT22;74658;51.736;7.038;2024-01-30T00:15:31;4.6;
84432;DHT22;74658;51.736;7.038;2024-01-30T00:20:32;4.6;
84432;DHT22;74658;51.736;7.038;2024-01-30T00:25:32;4.6;
84432;DHT22;74658;51.736;7.038;2024-01-30T00:30:33;4.7;
84432;DHT22;74658;51.736;7.038;2024-01-30T00:35:34;4.7;
84432;DHT22;74658;51.736;7.038;2024-01-30T00:40:34;4.7;
84432;DHT22;74658;51.736;7.038;2024-01-30T00:45:35;4.7;
84432;DHT22;74658;51.736;7.038;2024-01-30T00:50:36;4.6;
84432;DHT22;74658;51.736;7.038;2024-01-30T00:55:36;4.6;
84432;DHT22;74658;51.736;7.038;2024-01-30T01:00:37;4.7;
84432;DHT22;74658;51.736;7.038;2024-01-30T01:05:37;4.7;
84432;DHT22;74658;51.736;7.038;2024-01-30T01:10:41;4.7;
84432;DHT22;74658;51.736;7.038;2024-01-30T01:15:40;4.6;
84432;DHT22;74658;51.736;7.038;2024-01-30T01:20:40;4.6;
84432;DHT22;74658;51.736;7.038;2024-01-30T01:25:41;4.6;
84432;DHT22;74658;51.736;7.038;2024-01-30T01:30:41;4.6;
84432;DHT22;74658;51.736;7.038;2024-01-30T01:35:42;4.6;
84432;DHT22;74658;51.736;7.038;2024-01-30T01:40:43;4.6;
84432;DHT22;74658;51.736;7.038;2024-01-30T01:45:43;4.7;
84432;DHT22;74658;51.736;7.038;2024-01-30T01:50:44;4.6;
84432;DHT22;74658;51.736;7.038;2024-01-30T01:55:45;4.6;
84432;DHT22;74658;51.736;7.038;2024-01-30T02:00:45;4.7;
84432;DHT22;74658;51.736;7.038;2024-01-30T02:05:46;4.7;
84432;DHT22;74658;51.736;7.038;2024-01-30T02:10:46;4.7;
84432;DHT22;74658;51.736;7.038;2024-01-30T02:15:49;4.7;
84432;DHT22;74658;51.736;7.038;2024-01-30T02:20:47;4.7;
84432;DHT22;74658;51.736;7.038;2024-01-30T02:25:48;4.8;
84432;DHT22;74658;51.736;7.038;2024-01-30T02:30:49;4.8;
84432;DHT22;74658;51.736;7.038;2024-01-30T02:35:49;4.7;
84432;DHT22;74658;51.736;7.038;2024-01-30T02:40:50;4.7;
84432;DHT22;74658;51.736;7.038;2024-01-30T02:45:51;4.7;
84432;DHT22;74658;51.736;7.038;2024-01-30T02:50:51;4.6;
84432;DHT22;74658;51.736;7.038;2024-01-30T02:55:52;4.6;
84432;DHT22;74658;51.736;7.038;2024-01-30T03:00:52;4.6;
84432;DHT22;74658;51.736;7.038;2024-01-30T03:05:53;4.6;
84432;DHT22;74658;51.736;7.038;2024-01-30T03:10:54;4.6;
84432;DHT22;74658;51.736;7.038;2024-01-30T03:15:54;4.6;
84432;DHT22;74658;51.736;7.038;2024-01-30T03:20:55;4.6;
84432;DHT22;74658;51.736;7.038;2024-01-30T03:25:55;4.6;
84432;DHT22;74658;51.736;7.038;2024-01-30T03:30:56;4.7;
84432;DHT22;74658;51.736;7.038;2024-01-30T03:35:56;4.6;
84432;DHT22;74658;51.736;7.038;2024-01-30T03:40:57;4.6;
84432;DHT22;74658;51.736;7.038;2024-01-30T03:45:58;4.5;
84432;DHT22;74658;51.736;7.038;2024-01-30T03:50:58;4.5;
84432;DHT22;74658;51.736;7.038;2024-01-30T03:55:59;4.4;
84432;DHT22;74658;51.736;7.038;2024-01-30T04:01:00;4.4;
84432;DHT22;74658;51.736;7.038;2024-01-30T04:06:00;4.4;
84432;DHT22;74658;51.736;7.038;2024-01-30T04:11:03;4.5;
84432;DHT22;74658;51.736;7.038;2024-01-30T04:16:02;4.5;
84432;DHT22;74658;51.736;7.038;2024-01-30T04:21:02;4.4;
84432;DHT22;74658;51.736;7.038;2024-01-30T04:26:03;4.3;
84432;DHT22;74658;51.736;7.038;2024-01-30T04:31:03;4.2;
84432;DHT22;74658;51.736;7.038;2024-01-30T04:36:07;4.4;
84432;DHT22;74658;51.736;7.038;2024-01-30T04:41:05;4.2;
84432;DHT22;74658;51.736;7.038;2024-01-30T04:46:05;4.1;
84432;DHT22;74658;51.736;7.038;2024-01-30T04:51:06;4.1;
84432;DHT22;74658;51.736;7.038;2024-01-30T04:56:06;4.2;
84432;DHT22;74658;51.736;7.038;2024-01-30T05:01:07;4.2;
84432;DHT22;74658;51.736;7.038;2024-01-30T05:06:07;4.2;
84432;DHT22;74658;51.736;7.038;2024-01-30T05:11:08;4.2;
84432;DHT22;74658;51.736;7.038;2024-01-30T05:16:09;4.2;
84432;DHT22;74658;51.736;7.038;2024-01-30T05:21:10;4.1;
84432;DHT22;74658;51.736;7.038;2024-01-30T05:26:10;4.1;
84432;DHT22;74658;51.736;7.038;2024-01-30T05:31:10;4;
84432;DHT22;74658;51.736;7.038;2024-01-30T05:36:11;4;
84432;DHT22;74658;51.736;7.038;2024-01-30T05:41:12;4;
84432;DHT22;74658;51.736;7.038;2024-01-30T05:46:12;3.9;
84432;DHT22;74658;51.736;7.038;2024-01-30T05:51:13;3.9;
84432;DHT22;74658;51.736;7.038;2024-01-30T05:56:13;3.9;
84432;DHT22;74658;51.736;7.038;2024-01-30T06:01:14;4;
84432;DHT22;74658;51.736;7.038;2024-01-30T06:06:15;4;
84432;DHT22;74658;51.736;7.038;2024-01-30T06:11:15;4;
84432;DHT22;74658;51.736;7.038;2024-01-30T06:16:16;4;
84432;DHT22;74658;51.736;7.038;2024-01-30T06:21:17;4;
84432;DHT22;74658;51.736;7.038;2024-01-30T06:26:17;4.1;
84432;DHT22;74658;51.736;7.038;2024-01-30T06:31:18;4.1;
84432;DHT22;74658;51.736;7.038;2024-01-30T06:36:18;4.2;
84432;DHT22;74658;51.736;7.038;2024-01-30T06:41:19;4.2;
84432;DHT22;74658;51.736;7.038;2024-01-30T06:46:19;4.2;
84432;DHT22;74658;51.736;7.038;2024-01-30T06:51:20;4.3;
84432;DHT22;74658;51.736;7.038;2024-01-30T06:56:21;4.4;
84432;DHT22;74658;51.736;7.038;2024-01-30T07:01:27;4.4;
84432;DHT22;74658;51.736;7.038;2024-01-30T07:06:22;4.5;
84432;DHT22;74658;51.736;7.038;2024-01-30T07:11:22;4.6;
84432;DHT22;74658;51.736;7.038;2024-01-30T07:16:23;4.6;
84432;DHT22;74658;51.736;7.038;2024-01-30T07:21:24;4.7;
84432;DHT22;74658;51.736;7.038;2024-01-30T07:26:24;4.8;
84432;DHT22;74658;51.736;7.038;2024-01-30T07:31:25;4.9;
84432;DHT22;74658;51.736;7.038;2024-01-30T07:36:25;4.9;
84432;DHT22;74658;51.736;7.038;2024-01-30T07:41:26;5.1;
84432;DHT22;74658;51.736;7.038;2024-01-30T07:46:27;5.1;
84432;DHT22;74658;51.736;7.038;2024-01-30T07:51:27;5.2;
84432;DHT22;74658;51.736;7.038;2024-01-30T07:56:28;5.2;
84432;DHT22;74658;51.736;7.038;2024-01-30T08:01:29;5.2;
84432;DHT22;74658;51.736;7.038;2024-01-30T08:06:29;5.3;
84432;DHT22;74658;51.736;7.038;2024-01-30T08:11:31;5.3;
84432;DHT22;74658;51.736;7.038;2024-01-30T08:16:30;5.5;
84432;DHT22;74658;51.736;7.038;2024-01-30T08:21:31;5.6;
84432;DHT22;74658;51.736;7.038;2024-01-30T08:26:32;5.8;
84432;DHT22;74658;51.736;7.038;2024-01-30T08:31:32;5.9;
84432;DHT22;74658;51.736;7.038;2024-01-30T08:36:33;6;
84432;DHT22;74658;51.736;7.038;2024-01-30T08:41:34;6.3;
84432;DHT22;74658;51.736;7.038;2024-01-30T08:46:37;6.5;
84432;DHT22;74658;51.736;7.038;2024-01-30T08:51:35;6.7;
84432;DHT22;74658;51.736;7.038;2024-01-30T08:56:36;6.9;
84432;DHT22;74658;51.736;7.038;2024-01-30T09:01:37;7.3;
84432;DHT22;74658;51.736;7.038;2024-01-30T09:06:37;7.6;
84432;DHT22;74658;51.736;7.038;2024-01-30T09:11:39;7.6;
84432;DHT22;74658;51.736;7.038;2024-01-30T09:16:42;7.8;
84432;DHT22;74658;51.736;7.038;2024-01-30T09:21:40;7.9;
84432;DHT22;74658;51.736;7.038;2024-01-30T09:26:41;8.2;
84432;DHT22;74658;51.736;7.038;2024-01-30T09:31:43;8.4;
84432;DHT22;74658;51.736;7.038;2024-01-30T09:36:42;8.5;
84432;DHT22;74658;51.736;7.038;2024-01-30T09:41:45;8.7;
84432;DHT22;74658;51.736;7.038;2024-01-30T09:46:46;9.1;
84432;DHT22;74658;51.736;7.038;2024-01-30T09:51:44;9.3;
84432;DHT22;74658;51.736;7.038;2024-01-30T09:56:44;9.5;
84432;DHT22;74658;51.736;7.038;2024-01-30T10:01:45;9.8;
84432;DHT22;74658;51.736;7.038;2024-01-30T10:06:47;10.1;
84432;DHT22;74658;51.736;7.038;2024-01-30T10:11:47;10.1;
84432;DHT22;74658;51.736;7.038;2024-01-30T10:16:47;10.3;
84432;DHT22;74658;51.736;7.038;2024-01-30T10:21:48;10.7;
84432;DHT22;74658;51.736;7.038;2024-01-30T10:26:48;11.7;
84432;DHT22;74658;51.736;7.038;2024-01-30T10:31:58;12.2;
84432;DHT22;74658;51.736;7.038;2024-01-30T10:36:50;11.9;
84432;DHT22;74658;51.736;7.038;2024-01-30T10:41:53;11.6;
84432;DHT22;74658;51.736;7.038;2024-01-30T10:46:56;11.2;
84432;DHT22;74658;51.736;7.038;2024-01-30T10:51:52;11.3;
84432;DHT22;74658;51.736;7.038;2024-01-30T10:56:53;11.5;
84432;DHT22;74658;51.736;7.038;2024-01-30T11:01:53;11.5;
84432;DHT22;74658;51.736;7.038;2024-01-30T11:06:54;11.7;
84432;DHT22;74658;51.736;7.038;2024-01-30T11:11:56;11.8;
84432;DHT22;74658;51.736;7.038;2024-01-30T11:16:57;11.6;
84432;DHT22;74658;51.736;7.038;2024-01-30T11:21:55;11.5;
84432;DHT22;74658;51.736;7.038;2024-01-30T11:26:56;11.5;
84432;DHT22;74658;51.736;7.038;2024-01-30T11:31:57;11.4;
84432;DHT22;74658;51.736;7.038;2024-01-30T11:36:59;11.5;
84432;DHT22;74658;51.736;7.038;2024-01-30T11:41:59;11.5;
84432;DHT22;74658;51.736;7.038;2024-01-30T11:46:58;11.5;
84432;DHT22;74658;51.736;7.038;2024-01-30T11:51:59;11.6;
84432;DHT22;74658;51.736;7.038;2024-01-30T11:56:59;11.6;
84432;DHT22;74658;51.736;7.038;2024-01-30T12:02:00;11.6;
84432;DHT22;74658;51.736;7.038;2024-01-30T12:07:01;11.6;
84432;DHT22;74658;51.736;7.038;2024-01-30T12:12:02;11.5;
84432;DHT22;74658;51.736;7.038;2024-01-30T12:17:02;11.6;
84432;DHT22;74658;51.736;7.038;2024-01-30T12:22:03;11.5;
84432;DHT22;74658;51.736;7.038;2024-01-30T12:27:03;11.5;
84432;DHT22;74658;51.736;7.038;2024-01-30T12:32:04;11.5;
84432;DHT22;74658;51.736;7.038;2024-01-30T12:37:04;11.5;
84432;DHT22;74658;51.736;7.038;2024-01-30T12:42:05;11.6;
84432;DHT22;74658;51.736;7.038;2024-01-30T12:47:06;11.6;
84432;DHT22;74658;51.736;7.038;2024-01-30T12:52:06;11.7;
84432;DHT22;74658;51.736;7.038;2024-01-30T12:57:07;11.7;
84432;DHT22;74658;51.736;7.038;2024-01-30T13:02:08;11.8;
84432;DHT22;74658;51.736;7.038;2024-01-30T13:07:08;11.8;
84432;DHT22;74658;51.736;7.038;2024-01-30T13:12:09;11.7;
84432;DHT22;74658;51.736;7.038;2024-01-30T13:17:09;11.7;
84432;DHT22;74658;51.736;7.038;2024-01-30T13:22:10;11.6;
84432;DHT22;74658;51.736;7.038;2024-01-30T13:27:11;11.6;
84432;DHT22;74658;51.736;7.038;2024-01-30T13:32:11;11.6;
84432;DHT22;74658;51.736;7.038;2024-01-30T13:37:12;11.6;
84432;DHT22;74658;51.736;7.038;2024-01-30T13:42:13;11.6;
84432;DHT22;74658;51.736;7.038;2024-01-30T13:47:13;11.6;
84432;DHT22;74658;51.736;7.038;2024-01-30T13:52:14;11.5;
84432;DHT22;74658;51.736;7.038;2024-01-30T13:57:14;11.5;
84432;DHT22;74658;51.736;7.038;2024-01-30T14:02:15;11.5;
84432;DHT22;74658;51.736;7.038;2024-01-30T14:07:16;11.4;
84432;DHT22;74658;51.736;7.038;2024-01-30T14:12:16;11.4;
84432;DHT22;74658;51.736;7.038;2024-01-30T14:17:17;11.4;
84432;DHT22;74658;51.736;7.038;2024-01-30T14:22:17;11.4;
84432;DHT22;74658;51.736;7.038;2024-01-30T14:27:18;11.4;
84432;DHT22;74658;51.736;7.038;2024-01-30T14:32:19;11.4;
84432;DHT22;74658;51.736;7.038;2024-01-30T14:37:20;11.5;
84432;DHT22;74658;51.736;7.038;2024-01-30T14:42:20;11.6;
84432;DHT22;74658;51.736;7.038;2024-01-30T14:47:21;11.6;
84432;DHT22;74658;51.736;7.038;2024-01-30T14:52:21;11.7;
84432;DHT22;74658;51.736;7.038;2024-01-30T14:57:22;11.5;
84432;DHT22;74658;51.736;7.038;2024-01-30T15:02:23;11.5;
84432;DHT22;74658;51.736;7.038;2024-01-30T15:07:23;11.3;
84432;DHT22;74658;51.736;7.038;2024-01-30T15:12:24;11.3;
84432;DHT22;74658;51.736;7.038;2024-01-30T15:17:25;11.1;
84432;DHT22;74658;51.736;7.038;2024-01-30T15:22:25;11.1;
84432;DHT22;74658;51.736;7.038;2024-01-30T15:27:26;11.2;
84432;DHT22;74658;51.736;7.038;2024-01-30T15:32:26;10.9;
84432;DHT22;74658;51.736;7.038;2024-01-30T15:37:27;10.6;
84432;DHT22;74658;51.736;7.038;2024-01-30T15:42:28;10.5;
84432;DHT22;74658;51.736;7.038;2024-01-30T15:47:28;10.5;
84432;DHT22;74658;51.736;7.038;2024-01-30T15:52:29;10.4;
84432;DHT22;74658;51.736;7.038;2024-01-30T15:57:29;10.3;
84432;DHT22;74658;51.736;7.038;2024-01-30T16:02:30;10.2;
84432;DHT22;74658;51.736;7.038;2024-01-30T16:07:31;10.2;
84432;DHT22;74658;51.736;7.038;2024-01-30T16:12:31;10.2;
84432;DHT22;74658;51.736;7.038;2024-01-30T16:17:32;10.1;
84432;DHT22;74658;51.736;7.038;2024-01-30T16:22:32;10.1;
84432;DHT22;74658;51.736;7.038;2024-01-30T16:27:33;10;
84432;DHT22;74658;51.736;7.038;2024-01-30T16:32:34;10;
84432;DHT22;74658;51.736;7.038;2024-01-30T16:37:34;10;
84432;DHT22;74658;51.736;7.038;2024-01-30T16:42:35;10;
84432;DHT22;74658;51.736;7.038;2024-01-30T16:47:35;9.9;
84432;DHT22;74658;51.736;7.038;2024-01-30T16:52:36;9.9;
84432;DHT22;74658;51.736;7.038;2024-01-30T16:57:37;9.9;
84432;DHT22;74658;51.736;7.038;2024-01-30T17:02:37;9.8;
84432;DHT22;74658;51.736;7.038;2024-01-30T17:07:38;9.8;
84432;DHT22;74658;51.736;7.038;2024-01-30T17:12:39;9.6;
84432;DHT22;74658;51.736;7.038;2024-01-30T17:17:39;9.3;
84432;DHT22;74658;51.736;7.038;2024-01-30T17:22:40;9.2;
84432;DHT22;74658;51.736;7.038;2024-01-30T17:27:40;9;
84432;DHT22;74658;51.736;7.038;2024-01-30T17:32:41;8.8;
84432;DHT22;74658;51.736;7.038;2024-01-30T17:37:42;8.6;
84432;DHT22;74658;51.736;7.038;2024-01-30T17:42:42;8.5;
84432;DHT22;74658;51.736;7.038;2024-01-30T17:47:43;8.5;
84432;DHT22;74658;51.736;7.038;2024-01-30T17:52:44;8.4;
84432;DHT22;74658;51.736;7.038;2024-01-30T17:57:44;8.4;
84432;DHT22;74658;51.736;7.038;2024-01-30T18:02:45;8.4;
84432;DHT22;74658;51.736;7.038;2024-01-30T18:07:45;8.4;
84432;DHT22;74658;51.736;7.038;2024-01-30T18:12:46;8.3;
84432;DHT22;74658;51.736;7.038;2024-01-30T18:17:47;8.2;
84432;DHT22;74658;51.736;7.038;2024-01-30T18:22:47;8.2;
84432;DHT22;74658;51.736;7.038;2024-01-30T18:27:48;8.2;
84432;DHT22;74658;51.736;7.038;2024-01-30T18:32:48;8.2;
84432;DHT22;74658;51.736;7.038;2024-01-30T18:37:49;8.1;
84432;DHT22;74658;51.736;7.038;2024-01-30T18:42:50;8.2;
84432;DHT22;74658;51.736;7.038;2024-01-30T18:47:50;8.2;
84432;DHT22;74658;51.736;7.038;2024-01-30T18:52:52;8.2;
84432;DHT22;74658;51.736;7.038;2024-01-30T18:57:52;8.2;
84432;DHT22;74658;51.736;7.038;2024-01-30T19:02:52;8.1;
84432;DHT22;74658;51.736;7.038;2024-01-30T19:07:53;8;
84432;DHT22;74658;51.736;7.038;2024-01-30T19:12:53;8;
84432;DHT22;74658;51.736;7.038;2024-01-30T19:17:54;7.9;
84432;DHT22;74658;51.736;7.038;2024-01-30T19:22:55;7.8;
84432;DHT22;74658;51.736;7.038;2024-01-30T19:27:55;7.9;
84432;DHT22;74658;51.736;7.038;2024-01-30T19:32:56;7.8;
84432;DHT22;74658;51.736;7.038;2024-01-30T19:37:56;7.9;
84432;DHT22;74658;51.736;7.038;2024-01-30T19:42:57;7.8;
84432;DHT22;74658;51.736;7.038;2024-01-30T19:47:58;7.8;
84432;DHT22;74658;51.736;7.038;2024-01-30T19:52:58;7.8;
84432;DHT22;74658;51.736;7.038;2024-01-30T19:57:59;7.8;
84432;DHT22;74658;51.736;7.038;2024-01-30T20:02:59;7.8;
84432;DHT22;74658;51.736;7.038;2024-01-30T20:08:00;7.9;
84432;DHT22;74658;51.736;7.038;2024-01-30T20:13:01;7.8;
84432;DHT22;74658;51.736;7.038;2024-01-30T20:18:01;7.8;
84432;DHT22;74658;51.736;7.038;2024-01-30T20:23:02;7.8;
84432;DHT22;74658;51.736;7.038;2024-01-30T20:28:03;7.8;
84432;DHT22;74658;51.736;7.038;2024-01-30T20:33:03;7.8;
84432;DHT22;74658;51.736;7.038;2024-01-30T20:38:04;7.7;
84432;DHT22;74658;51.736;7.038;2024-01-30T20:43:04;7.7;
84432;DHT22;74658;51.736;7.038;2024-01-30T20:48:06;7.6;
84432;DHT22;74658;51.736;7.038;2024-01-30T20:53:05;7.5;
84432;DHT22;74658;51.736;7.038;2024-01-30T20:58:06;7.5;
84432;DHT22;74658;51.736;7.038;2024-01-30T21:03:07;7.5;
84432;DHT22;74658;51.736;7.038;2024-01-30T21:08:07;7.4;
84432;DHT22;74658;51.736;7.038;2024-01-30T21:13:08;7.4;
84432;DHT22;74658;51.736;7.038;2024-01-30T21:18:08;7.3;
84432;DHT22;74658;51.736;7.038;2024-01-30T21:23:09;7.3;
84432;DHT22;74658;51.736;7.038;2024-01-30T21:28:10;7.3;
84432;DHT22;74658;51.736;7.038;2024-01-30T21:33:10;7.3;
84432;DHT22;74658;51.736;7.038;2024-01-30T21:38:11;7.2;
84432;DHT22;74658;51.736;7.038;2024-01-30T21:43:11;7.2;
84432;DHT22;74658;51.736;7.038;2024-01-30T21:48:12;7.2;
84432;DHT22;74658;51.736;7.038;2024-01-30T21:53:13;7.2;
84432;DHT22;74658;51.736;7.038;2024-01-30T21:58:13;7.1;
84432;DHT22;74658;51.736;7.038;2024-01-30T22:03:15;7.1;
84432;DHT22;74658;51.736;7.038;2024-01-30T22:08:14;7;
84432;DHT22;74658;51.736;7.038;2024-01-30T22:13:15;7;
84432;DHT22;74658;51.736;7.038;2024-01-30T22:18:16;7;
84432;DHT22;74658;51.736;7.038;2024-01-30T22:23:16;6.9;
84432;DHT22;74658;51.736;7.038;2024-01-30T22:28:17;6.9;
84432;DHT22;74658;51.736;7.038;2024-01-30T22:33:17;6.9;
84432;DHT22;74658;51.736;7.038;2024-01-30T22:38:18;6.9;
84432;DHT22;74658;51.736;7.038;2024-01-30T22:43:19;6.9;
84432;DHT22;74658;51.736;7.038;2024-01-30T22:48:19;6.9;
84432;DHT22;74658;51.736;7.038;2024-01-30T22:53:20;6.8;
84432;DHT22;74658;51.736;7.038;2024-01-30T22:58:20;6.8;
84432;DHT22;74658;51.736;7.038;2024-01-30T23:03:22;6.8;
84432;DHT22;74658;51.736;7.038;2024-01-30T23:08:22;6.8;
84432;DHT22;74658;51.736;7.038;2024-01-30T23:13:22;6.8;
84432;DHT22;74658;51.736;7.038;2024-01-30T23:18:23;6.8;
84432;DHT22;74658;51.736;7.038;2024-01-30T23:23:24;6.7;
84432;DHT22;74658;51.736;7.038;2024-01-30T23:28:24;6.7;
84432;DHT22;74658;51.736;7.038;2024-01-30T23:33:25;6.7;
84432;DHT22;74658;51.736;7.038;2024-01-30T23:38:25;6.7;
84432;DHT22;74658;51.736;7.038;2024-01-30T23:43:26;6.7;
84432;DHT22;74658;51.736;7.038;2024-01-30T23:48:27;6.7;
84432;DHT22;74658;51.736;7.038;2024-01-30T23:53:27;6.8;
84432;DHT22;74658;51.736;7.038;2024-01-30T23:58:28;6.7;
